ACA577 KLAX-CYVR
Flight info
| Callsign | ACA577 |
|---|---|
| Flight time | N/A |
| Altitude | 40000 |
| Route | SUMMR2 SCTRR DCT SNS J126 SAC DCT LMT J65 SEA DCT PAE GRIZZ9 |
| Aircraft | B78X/H-SDE1E2E3FGHIJ2J3J4J5M1RWXY/LB1D1 |
Departure
| Time | 2026-04-22 22:36 |
|---|---|
| Airport | Los Angeles International Airport (KLAX) |
Arrival
| Time | N/A |
|---|---|
| Airport | Vancouver International Airport (CYVR) |
| Time | Latitude | Longitude | Altitude | Speed | Heading |
|---|---|---|---|---|---|
| 2026-04-22 22:20 | 33.94176 | -118.41118 | 136 ft | 0 kts | 82° |
| 2026-04-22 22:26 | 33.94173 | -118.41139 | 133 ft | 3 kts | 83° |
| 2026-04-22 22:26 | 33.94169 | -118.41163 | 131 ft | 3 kts | 63° |
| 2026-04-22 22:27 | 33.94156 | -118.41183 | 134 ft | 3 kts | 40° |
| 2026-04-22 22:27 | 33.94139 | -118.41196 | 134 ft | 3 kts | 19° |
| 2026-04-22 22:27 | 33.94121 | -118.41201 | 134 ft | 4 kts | 2° |
| 2026-04-22 22:27 | 33.94116 | -118.41201 | 134 ft | 0 kts | 353° |
| 2026-04-22 22:28 | 33.94154 | -118.41207 | 128 ft | 12 kts | 352° |
| 2026-04-22 22:29 | 33.94280 | -118.41226 | 129 ft | 25 kts | 354° |
| 2026-04-22 22:29 | 33.94488 | -118.41258 | 128 ft | 33 kts | 352° |
| 2026-04-22 22:29 | 33.94716 | -118.41295 | 136 ft | 28 kts | 353° |
| 2026-04-22 22:29 | 33.94772 | -118.41354 | 136 ft | 14 kts | 275° |
| 2026-04-22 22:30 | 33.94754 | -118.41531 | 134 ft | 24 kts | 261° |
| 2026-04-22 22:30 | 33.94734 | -118.41724 | 130 ft | 23 kts | 264° |
| 2026-04-22 22:30 | 33.94731 | -118.41757 | 125 ft | 0 kts | 263° |
| 2026-04-22 22:30 | 33.94727 | -118.41774 | 126 ft | 5 kts | 250° |
| 2026-04-22 22:31 | 33.94711 | -118.41814 | 127 ft | 6 kts | 227° |
| 2026-04-22 22:31 | 33.94691 | -118.41825 | 123 ft | 7 kts | 194° |
| 2026-04-22 22:31 | 33.94661 | -118.41828 | 124 ft | 2 kts | 172° |
| 2026-04-22 22:31 | 33.94649 | -118.41823 | 130 ft | 0 kts | 160° |
| 2026-04-22 22:32 | 33.94628 | -118.41810 | 128 ft | 11 kts | 147° |
| 2026-04-22 22:32 | 33.94583 | -118.41718 | 127 ft | 19 kts | 96° |
| 2026-04-22 22:32 | 33.94643 | -118.41584 | 133 ft | 16 kts | 37° |
| 2026-04-22 22:32 | 33.94728 | -118.41554 | 129 ft | 10 kts | 26° |
| 2026-04-22 22:33 | 33.94762 | -118.41494 | 130 ft | 12 kts | 68° |
| 2026-04-22 22:33 | 33.94793 | -118.41318 | 136 ft | 37 kts | 82° |
| 2026-04-22 22:33 | 33.94836 | -118.40888 | 137 ft | 59 kts | 83° |
| 2026-04-22 22:33 | 33.94884 | -118.40409 | 132 ft | 49 kts | 82° |
| 2026-04-22 22:34 | 33.94912 | -118.40139 | 128 ft | 18 kts | 80° |
| 2026-04-22 22:34 | 33.94922 | -118.40110 | 124 ft | 0 kts | 53° |
| 2026-04-22 22:34 | 33.94927 | -118.40102 | 127 ft | 3 kts | 50° |
| 2026-04-22 22:35 | 33.94982 | -118.40075 | 124 ft | 11 kts | 357° |
| 2026-04-22 22:35 | 33.95026 | -118.40133 | 126 ft | 10 kts | 274° |
| 2026-04-22 22:35 | 33.95010 | -118.40273 | 127 ft | 38 kts | 261° |
| 2026-04-22 22:35 | 33.94930 | -118.40963 | 127 ft | 126 kts | 262° |
| 2026-04-22 22:36 | 33.94800 | -118.42268 | 521 ft | 175 kts | 261° |
| 2026-04-22 22:36 | 33.94672 | -118.43808 | 1364 ft | 196 kts | 262° |
| 2026-04-22 22:36 | 33.94478 | -118.45489 | 2268 ft | 212 kts | 261° |
| 2026-04-22 22:36 | 33.94350 | -118.47359 | 2846 ft | 238 kts | 268° |
| 2026-04-22 22:37 | 33.94304 | -118.49398 | 3732 ft | 244 kts | 266° |
| 2026-04-22 22:37 | 33.94172 | -118.51451 | 4711 ft | 251 kts | 263° |
| 2026-04-22 22:37 | 33.94046 | -118.52863 | 4982 ft | 260 kts | 264° |
| 2026-04-22 22:37 | 33.93891 | -118.55028 | 4998 ft | 258 kts | 264° |
| 2026-04-22 22:38 | 33.93737 | -118.57171 | 4997 ft | 256 kts | 264° |
| 2026-04-22 22:38 | 33.93569 | -118.59297 | 5006 ft | 255 kts | 264° |
| 2026-04-22 22:38 | 33.93345 | -118.62108 | 5004 ft | 253 kts | 264° |
| 2026-04-22 22:38 | 33.93178 | -118.64241 | 5396 ft | 256 kts | 264° |
| 2026-04-22 22:39 | 33.93066 | -118.65665 | 6215 ft | 252 kts | 264° |
| 2026-04-22 22:39 | 33.92903 | -118.67786 | 7130 ft | 257 kts | 264° |
| 2026-04-22 22:39 | 33.92738 | -118.69937 | 8079 ft | 260 kts | 264° |
| 2026-04-22 22:39 | 33.92569 | -118.72113 | 9036 ft | 262 kts | 263° |
| 2026-04-22 22:40 | 33.92402 | -118.74247 | 9964 ft | 264 kts | 263° |
| 2026-04-22 22:40 | 33.92222 | -118.76542 | 10684 ft | 272 kts | 263° |
| 2026-04-22 22:40 | 33.92045 | -118.78810 | 11564 ft | 272 kts | 263° |
| 2026-04-22 22:40 | 33.91864 | -118.81116 | 11980 ft | 281 kts | 263° |
| 2026-04-22 22:41 | 33.91706 | -118.83449 | 11980 ft | 277 kts | 268° |
| 2026-04-22 22:41 | 33.91770 | -118.85768 | 12580 ft | 274 kts | 270° |
| 2026-04-22 22:41 | 33.91840 | -118.88022 | 13511 ft | 273 kts | 270° |
| 2026-04-22 22:41 | 33.91908 | -118.90311 | 14330 ft | 274 kts | 270° |
| 2026-04-22 22:42 | 33.91975 | -118.92608 | 15095 ft | 275 kts | 270° |
| 2026-04-22 22:42 | 33.92042 | -118.94912 | 15826 ft | 276 kts | 270° |
| 2026-04-22 22:42 | 33.92110 | -118.97227 | 16545 ft | 277 kts | 270° |